createdAt,value
2023-06-10T00:00:20.483Z,8
2023-06-10T00:00:51.845Z,8
2023-06-10T00:01:23.964Z,15
2023-06-10T00:01:55.829Z,15
2023-06-10T00:02:27.928Z,15
2023-06-10T00:02:59.839Z,15
2023-06-10T00:03:32.025Z,15
2023-06-10T00:04:04.503Z,14
2023-06-10T00:04:19.959Z,14
2023-06-10T00:04:51.669Z,28
2023-06-10T00:05:08.195Z,27
2023-06-10T00:05:39.688Z,27
2023-06-10T00:06:11.574Z,27
2023-06-10T00:06:43.498Z,27
2023-06-10T00:07:15.857Z,10
2023-06-10T00:07:47.680Z,18
2023-06-10T00:08:19.347Z,15
2023-06-10T00:08:35.923Z,16
2023-06-10T00:09:07.287Z,22
2023-06-10T00:09:51.515Z,22
2023-06-10T00:10:23.681Z,22
2023-06-10T00:10:55.224Z,8
2023-06-10T00:11:27.349Z,25
2023-06-10T00:11:59.389Z,18
2023-06-10T00:12:31.376Z,301
2023-06-10T00:13:03.830Z,337
2023-06-10T00:13:19.362Z,337
2023-06-10T00:14:03.895Z,323
2023-06-10T00:14:35.657Z,324
2023-06-10T00:15:08.755Z,333
2023-06-10T00:15:39.063Z,358
2023-06-10T00:16:11.288Z,321
2023-06-10T00:16:43.098Z,344
2023-06-10T00:17:15.348Z,29
2023-06-10T00:17:47.164Z,29
2023-06-10T00:18:18.936Z,29
2023-06-10T00:18:51.271Z,33
2023-06-10T00:19:23.053Z,32
2023-06-10T00:19:55.034Z,32
2023-06-10T00:20:27.463Z,32
2023-06-10T00:20:58.931Z,33
2023-06-10T00:21:31.015Z,32
2023-06-10T00:22:03.538Z,32
2023-06-10T00:22:18.996Z,33
2023-06-10T00:22:50.847Z,32
2023-06-10T00:23:07.008Z,32
2023-06-10T00:23:39.030Z,32
2023-06-10T00:24:10.932Z,21
2023-06-10T00:24:42.727Z,21
2023-06-10T00:25:15.140Z,21
2023-06-10T00:25:46.894Z,21
2023-06-10T00:26:18.692Z,21
2023-06-10T00:26:34.724Z,21
2023-06-10T00:27:06.868Z,20
2023-06-10T00:27:50.696Z,356
2023-06-10T00:28:22.602Z,358
2023-06-10T00:28:54.517Z,358
2023-06-10T00:29:26.812Z,16
2023-06-10T00:29:58.511Z,16
2023-06-10T00:30:30.997Z,16
2023-06-10T00:31:03.050Z,16
2023-06-10T00:31:18.673Z,16
2023-06-10T00:32:03.366Z,358
2023-06-10T00:32:34.356Z,13
2023-06-10T00:33:06.815Z,14
2023-06-10T00:33:38.311Z,14
2023-06-10T00:34:10.274Z,14
2023-06-10T00:34:42.574Z,332
2023-06-10T00:35:14.645Z,348
2023-06-10T00:35:46.276Z,350
2023-06-10T00:36:18.458Z,350
2023-06-10T00:36:50.355Z,4
2023-06-10T00:37:22.234Z,345
2023-06-10T00:37:54.140Z,272
2023-06-10T00:38:26.340Z,273
2023-06-10T00:38:58.132Z,273
2023-06-10T00:39:30.276Z,275
2023-06-10T00:40:02.942Z,290
2023-06-10T00:40:18.275Z,290
2023-06-10T00:40:50.312Z,330
2023-06-10T00:41:06.417Z,330
2023-06-10T00:41:38.221Z,339
2023-06-10T00:42:09.879Z,13
2023-06-10T00:42:42.090Z,14
2023-06-10T00:43:13.961Z,13
2023-06-10T00:43:46.103Z,10
2023-06-10T00:44:18.010Z,10
2023-06-10T00:44:34.001Z,10
2023-06-10T00:45:07.996Z,10
2023-06-10T00:45:50.006Z,328
2023-06-10T00:46:22.341Z,345
2023-06-10T00:46:53.842Z,350
2023-06-10T00:47:26.002Z,350
2023-06-10T00:47:58.079Z,353
2023-06-10T00:48:29.784Z,7
2023-06-10T00:49:02.218Z,7
2023-06-10T00:49:33.683Z,332
2023-06-10T00:50:06.513Z,1
2023-06-10T00:50:37.630Z,5
2023-06-10T00:51:09.658Z,356
2023-06-10T00:51:41.739Z,312
2023-06-10T00:52:13.568Z,348
2023-06-10T00:52:45.763Z,311
2023-06-10T00:53:17.695Z,323
2023-06-10T00:53:33.623Z,326
2023-06-10T00:54:17.614Z,330
2023-06-10T00:54:49.553Z,325
2023-06-10T00:55:21.744Z,328
2023-06-10T00:55:53.410Z,349
2023-06-10T00:56:25.566Z,354
2023-06-10T00:56:57.453Z,3
2023-06-10T00:57:29.294Z,3
2023-06-10T00:58:01.602Z,3
2023-06-10T00:58:17.741Z,3
2023-06-10T00:58:49.259Z,3
2023-06-10T00:59:05.805Z,3
2023-06-10T00:59:37.204Z,3
2023-06-10T01:00:10.524Z,3
2023-06-10T01:00:41.355Z,3
2023-06-10T01:01:13.263Z,3
2023-06-10T01:01:45.606Z,3
2023-06-10T01:02:17.328Z,3
2023-06-10T01:02:33.303Z,3
2023-06-10T01:03:05.492Z,3
2023-06-10T01:03:49.272Z,3
2023-06-10T01:04:21.285Z,5
2023-06-10T01:04:53.016Z,6
2023-06-10T01:05:26.279Z,320
2023-06-10T01:05:57.260Z,348
2023-06-10T01:06:28.851Z,9
2023-06-10T01:07:01.239Z,9
2023-06-10T01:07:33.129Z,9
2023-06-10T01:08:05.167Z,10
2023-06-10T01:08:37.022Z,358
2023-06-10T01:09:09.097Z,358
2023-06-10T01:09:40.920Z,255
2023-06-10T01:10:13.185Z,282
2023-06-10T01:10:44.987Z,358
2023-06-10T01:11:16.818Z,13
2023-06-10T01:11:33.085Z,8
2023-06-10T01:12:16.939Z,302
2023-06-10T01:12:48.884Z,269
2023-06-10T01:13:20.704Z,263
2023-06-10T01:13:52.607Z,263
2023-06-10T01:14:24.652Z,263
2023-06-10T01:14:56.885Z,292
2023-06-10T01:15:28.963Z,303
2023-06-10T01:16:00.592Z,328
2023-06-10T01:16:16.993Z,344
2023-06-10T01:16:48.582Z,321
2023-06-10T01:17:04.793Z,337
2023-06-10T01:17:36.662Z,326
2023-06-10T01:18:08.476Z,333
2023-06-10T01:18:40.504Z,333
2023-06-10T01:19:12.474Z,334
2023-06-10T01:19:44.241Z,328
2023-06-10T01:20:16.924Z,6
2023-06-10T01:20:32.646Z,6
2023-06-10T01:21:04.451Z,6
2023-06-10T01:21:48.560Z,6
2023-06-10T01:22:20.369Z,7
2023-06-10T01:22:52.350Z,7
2023-06-10T01:23:24.261Z,6
2023-06-10T01:23:56.653Z,7
2023-06-10T01:24:28.271Z,3
2023-06-10T01:25:00.643Z,18
2023-06-10T01:25:16.772Z,18
2023-06-10T01:26:00.355Z,16
2023-06-10T01:26:32.246Z,15
2023-06-10T01:27:04.546Z,15
2023-06-10T01:27:36.361Z,5
2023-06-10T01:28:08.092Z,10
2023-06-10T01:28:40.080Z,10
2023-06-10T01:29:12.036Z,347
2023-06-10T01:29:44.028Z,349
2023-06-10T01:30:17.706Z,347
2023-06-10T01:30:48.066Z,302
2023-06-10T01:31:19.865Z,296
2023-06-10T01:31:52.102Z,342
2023-06-10T01:32:23.972Z,354
2023-06-10T01:32:56.014Z,354
2023-06-10T01:33:27.799Z,355
2023-06-10T01:33:59.809Z,355
2023-06-10T01:34:31.880Z,317
2023-06-10T01:35:05.503Z,331
2023-06-10T01:35:35.987Z,347
2023-06-10T01:36:07.760Z,355
2023-06-10T01:36:39.794Z,357
2023-06-10T01:37:11.900Z,357
2023-06-10T01:37:43.577Z,357
2023-06-10T01:38:15.987Z,357
2023-06-10T01:38:31.794Z,357
2023-06-10T01:39:04.086Z,357
2023-06-10T01:39:47.840Z,357
2023-06-10T01:40:19.833Z,357
2023-06-10T01:40:51.663Z,357
2023-06-10T01:41:23.453Z,357
2023-06-10T01:41:55.700Z,357
2023-06-10T01:42:27.525Z,348
2023-06-10T01:42:43.576Z,6
2023-06-10T01:43:15.808Z,11
2023-06-10T01:43:31.599Z,12
2023-06-10T01:44:04.093Z,12
2023-06-10T01:44:35.489Z,12
2023-06-10T01:45:08.322Z,12
2023-06-10T01:45:39.417Z,12
2023-06-10T01:46:11.339Z,12
2023-06-10T01:46:43.283Z,12
2023-06-10T01:47:15.723Z,12
2023-06-10T01:47:47.504Z,12
2023-06-10T01:48:19.329Z,12
2023-06-10T01:48:51.281Z,12
2023-06-10T01:49:23.176Z,12
2023-06-10T01:49:55.327Z,12
2023-06-10T01:50:27.418Z,12
2023-06-10T01:50:59.048Z,12
2023-06-10T01:51:15.652Z,12
2023-06-10T01:51:47.155Z,12
2023-06-10T01:52:03.936Z,12
2023-06-10T01:52:34.980Z,12
2023-06-10T01:53:07.094Z,12
2023-06-10T01:53:38.990Z,12
2023-06-10T01:54:11.074Z,12
2023-06-10T01:54:42.910Z,357
2023-06-10T01:55:15.327Z,357
2023-06-10T01:55:31.179Z,357
2023-06-10T01:56:03.396Z,356
2023-06-10T01:56:34.965Z,356
2023-06-10T01:57:07.096Z,355
2023-06-10T01:57:47.079Z,356
2023-06-10T01:58:03.640Z,343
2023-06-10T01:58:47.328Z,358
2023-06-10T01:59:18.849Z,268
2023-06-10T01:59:50.928Z,301
2023-06-10T02:00:23.141Z,291
2023-06-10T02:00:54.862Z,275
2023-06-10T02:01:26.997Z,9
2023-06-10T02:01:58.757Z,348
2023-06-10T02:02:30.964Z,6
2023-06-10T02:02:47.533Z,2
2023-06-10T02:03:18.761Z,6
2023-06-10T02:04:03.271Z,1
2023-06-10T02:04:34.527Z,2
2023-06-10T02:05:07.041Z,352
2023-06-10T02:05:38.559Z,9
2023-06-10T02:06:10.569Z,10
2023-06-10T02:06:42.613Z,325
2023-06-10T02:07:14.386Z,355
2023-06-10T02:07:30.676Z,354
2023-06-10T02:08:14.360Z,292
2023-06-10T02:08:46.988Z,356
2023-06-10T02:09:18.472Z,306
2023-06-10T02:09:50.332Z,344
2023-06-10T02:10:22.677Z,344
2023-06-10T02:10:54.386Z,311
2023-06-10T02:11:26.732Z,291
2023-06-10T02:11:58.336Z,336
2023-06-10T02:12:16.710Z,312
2023-06-10T02:12:46.930Z,320
2023-06-10T02:13:03.183Z,328
2023-06-10T02:13:34.361Z,328
2023-06-10T02:14:06.578Z,329
2023-06-10T02:14:38.170Z,348
2023-06-10T02:15:11.901Z,349
2023-06-10T02:15:42.227Z,356
2023-06-10T02:16:14.266Z,327
2023-06-10T02:16:30.334Z,336
2023-06-10T02:17:02.564Z,336
2023-06-10T02:17:46.509Z,336
2023-06-10T02:18:18.068Z,334
2023-06-10T02:18:49.839Z,293
2023-06-10T02:19:22.073Z,308
2023-06-10T02:19:53.900Z,299
2023-06-10T02:20:26.204Z,9
2023-06-10T02:20:57.901Z,9
2023-06-10T02:21:29.803Z,3
2023-06-10T02:22:02.291Z,9
2023-06-10T02:22:33.746Z,10
2023-06-10T02:23:05.922Z,357
2023-06-10T02:23:37.998Z,5
2023-06-10T02:24:09.831Z,331
2023-06-10T02:24:41.650Z,334
2023-06-10T02:25:14.021Z,356
2023-06-10T02:25:29.793Z,357
2023-06-10T02:26:13.825Z,288
2023-06-10T02:26:46.119Z,301
2023-06-10T02:27:17.545Z,332
2023-06-10T02:27:49.594Z,21
2023-06-10T02:28:21.730Z,13
2023-06-10T02:28:53.542Z,30
2023-06-10T02:29:25.695Z,33
2023-06-10T02:29:57.669Z,33
2023-06-10T02:30:15.172Z,33
2023-06-10T02:30:45.886Z,32
2023-06-10T02:31:02.396Z,32
2023-06-10T02:31:33.523Z,32
2023-06-10T02:32:07.093Z,32
2023-06-10T02:32:37.545Z,32
2023-06-10T02:33:09.591Z,32
2023-06-10T02:33:41.432Z,32
2023-06-10T02:34:13.370Z,25
2023-06-10T02:34:29.404Z,25
2023-06-10T02:35:02.049Z,25
2023-06-10T02:35:45.617Z,25
2023-06-10T02:36:17.394Z,25
2023-06-10T02:36:49.161Z,25
2023-06-10T02:37:21.330Z,25
2023-06-10T02:37:53.236Z,324
2023-06-10T02:38:25.358Z,337
2023-06-10T02:38:57.174Z,338
2023-06-10T02:39:13.336Z,333
2023-06-10T02:39:57.370Z,358
2023-06-10T02:40:29.652Z,19
2023-06-10T02:41:01.317Z,19
2023-06-10T02:41:33.055Z,353
2023-06-10T02:42:05.691Z,297
2023-06-10T02:42:37.245Z,330
2023-06-10T02:43:08.856Z,340
2023-06-10T02:43:40.934Z,326
2023-06-10T02:44:12.965Z,328
2023-06-10T02:44:45.472Z,327
2023-06-10T02:45:18.544Z,304
2023-06-10T02:45:48.948Z,302
2023-06-10T02:46:20.910Z,295
2023-06-10T02:46:53.002Z,295
2023-06-10T02:47:24.942Z,295
2023-06-10T02:47:56.944Z,295
2023-06-10T02:48:28.856Z,294
2023-06-10T02:49:00.926Z,294
2023-06-10T02:49:32.700Z,294
2023-06-10T02:50:05.551Z,295
2023-06-10T02:50:36.831Z,293
2023-06-10T02:51:08.728Z,293
2023-06-10T02:51:40.594Z,293
2023-06-10T02:52:12.707Z,293
2023-06-10T02:52:44.572Z,293
2023-06-10T02:53:16.967Z,293
2023-06-10T02:53:48.490Z,293
2023-06-10T02:54:20.521Z,334
2023-06-10T02:54:52.594Z,333
2023-06-10T02:55:24.886Z,334
2023-06-10T02:55:56.569Z,333
2023-06-10T02:56:12.613Z,334
2023-06-10T02:56:56.545Z,334
2023-06-10T02:57:28.778Z,333
2023-06-10T02:58:00.418Z,333
2023-06-10T02:58:32.358Z,333
2023-06-10T02:59:05.014Z,333
2023-06-10T02:59:36.554Z,333
2023-06-10T03:00:09.508Z,333
2023-06-10T03:00:40.238Z,333
2023-06-10T03:01:12.301Z,333
2023-06-10T03:01:44.237Z,333
2023-06-10T03:02:16.443Z,333
2023-06-10T03:02:48.069Z,333
2023-06-10T03:03:20.256Z,333
2023-06-10T03:03:52.245Z,333
2023-06-10T03:04:24.174Z,333
2023-06-10T03:04:56.155Z,333
2023-06-10T03:05:12.851Z,334
2023-06-10T03:05:44.201Z,334
2023-06-10T03:06:28.104Z,334
2023-06-10T03:06:59.986Z,334
2023-06-10T03:07:31.990Z,334
2023-06-10T03:08:04.507Z,334
2023-06-10T03:08:35.992Z,334
2023-06-10T03:09:08.064Z,334
2023-06-10T03:09:39.765Z,334
2023-06-10T03:10:12.119Z,334
2023-06-10T03:10:43.898Z,334
2023-06-10T03:11:16.127Z,333
2023-06-10T03:11:47.762Z,333
2023-06-10T03:12:19.747Z,333
2023-06-10T03:12:51.909Z,333
2023-06-10T03:13:23.741Z,333
2023-06-10T03:13:55.805Z,333
2023-06-10T03:14:11.765Z,333
2023-06-10T03:14:55.984Z,333
2023-06-10T03:15:29.010Z,333
2023-06-10T03:16:00.597Z,334
2023-06-10T03:16:31.814Z,334
2023-06-10T03:17:04.048Z,333
2023-06-10T03:17:35.972Z,333
2023-06-10T03:18:07.892Z,333
2023-06-10T03:18:39.435Z,333
2023-06-10T03:19:11.693Z,333
2023-06-10T03:19:43.579Z,333
2023-06-10T03:20:15.870Z,333
2023-06-10T03:20:47.750Z,300
2023-06-10T03:21:19.693Z,300
2023-06-10T03:21:51.498Z,300
2023-06-10T03:22:23.629Z,315
2023-06-10T03:22:55.544Z,336
2023-06-10T03:23:11.821Z,337
2023-06-10T03:23:43.379Z,355
2023-06-10T03:23:59.618Z,322
2023-06-10T03:24:31.459Z,334
2023-06-10T03:25:04.321Z,329
2023-06-10T03:25:35.679Z,318
2023-06-10T03:26:07.644Z,326
2023-06-10T03:26:39.449Z,330
2023-06-10T03:27:11.516Z,313
2023-06-10T03:27:30.088Z,315
2023-06-10T03:27:59.479Z,321
2023-06-10T03:28:43.517Z,322
2023-06-10T03:29:15.332Z,323
2023-06-10T03:29:47.300Z,323
2023-06-10T03:30:19.626Z,315
2023-06-10T03:30:51.211Z,339
2023-06-10T03:31:23.298Z,338
2023-06-10T03:31:55.085Z,338
2023-06-10T03:32:11.274Z,338
2023-06-10T03:32:55.319Z,339
2023-06-10T03:33:27.426Z,339
2023-06-10T03:33:59.265Z,339
2023-06-10T03:34:31.059Z,339
2023-06-10T03:35:04.407Z,339
2023-06-10T03:35:35.176Z,339
2023-06-10T03:36:07.300Z,338
2023-06-10T03:36:38.867Z,338
2023-06-10T03:37:11.049Z,339
2023-06-10T03:37:27.172Z,359
2023-06-10T03:38:11.055Z,11
2023-06-10T03:38:42.979Z,7
2023-06-10T03:39:14.779Z,7
2023-06-10T03:39:47.076Z,7
2023-06-10T03:40:19.099Z,7
2023-06-10T03:40:51.015Z,7
2023-06-10T03:41:22.665Z,310
2023-06-10T03:41:54.722Z,323
2023-06-10T03:42:26.847Z,339
2023-06-10T03:42:58.792Z,339
2023-06-10T03:43:30.497Z,339
2023-06-10T03:44:03.309Z,338
2023-06-10T03:44:34.718Z,338
2023-06-10T03:45:09.003Z,338
2023-06-10T03:45:38.581Z,338
2023-06-10T03:46:10.663Z,339
2023-06-10T03:46:42.532Z,339
2023-06-10T03:47:14.526Z,339
2023-06-10T03:47:46.548Z,339
2023-06-10T03:48:18.461Z,339
2023-06-10T03:48:50.390Z,339
2023-06-10T03:49:22.253Z,339
2023-06-10T03:49:54.350Z,339
2023-06-10T03:50:11.126Z,339
2023-06-10T03:50:54.323Z,339
2023-06-10T03:51:26.799Z,339
2023-06-10T03:51:58.319Z,339
2023-06-10T03:52:30.221Z,340
2023-06-10T03:53:03.578Z,339
2023-06-10T03:53:34.349Z,338
2023-06-10T03:54:06.418Z,338
2023-06-10T03:54:38.242Z,338
2023-06-10T03:55:10.766Z,338
2023-06-10T03:55:42.457Z,315
2023-06-10T03:56:14.155Z,315
2023-06-10T03:56:46.424Z,315
2023-06-10T03:57:18.430Z,315
2023-06-10T03:57:50.216Z,315
2023-06-10T03:58:22.148Z,315
2023-06-10T03:58:54.046Z,315
2023-06-10T03:59:10.239Z,315
2023-06-10T03:59:42.083Z,315
2023-06-10T03:59:58.147Z,315
2023-06-10T04:00:30.257Z,315
2023-06-10T04:01:02.867Z,315
2023-06-10T04:01:33.935Z,315
2023-06-10T04:02:06.305Z,315
2023-06-10T04:02:38.211Z,315
2023-06-10T04:03:09.995Z,339
2023-06-10T04:03:26.300Z,339
2023-06-10T04:03:57.789Z,339
2023-06-10T04:04:42.126Z,336
2023-06-10T04:05:13.865Z,336
2023-06-10T04:05:45.886Z,336
2023-06-10T04:06:17.818Z,339
2023-06-10T04:06:49.922Z,339
2023-06-10T04:07:21.615Z,338
2023-06-10T04:07:53.647Z,338
2023-06-10T04:08:09.720Z,338
2023-06-10T04:08:53.560Z,356
2023-06-10T04:09:25.792Z,356
2023-06-10T04:09:57.673Z,356
2023-06-10T04:10:29.775Z,352
2023-06-10T04:11:02.334Z,352
2023-06-10T04:11:33.494Z,352
2023-06-10T04:12:05.661Z,352
2023-06-10T04:12:37.458Z,356
2023-06-10T04:13:09.509Z,356
2023-06-10T04:13:41.642Z,359
2023-06-10T04:14:13.419Z,5
2023-06-10T04:14:45.478Z,6
2023-06-10T04:15:18.906Z,5
2023-06-10T04:15:49.460Z,2
2023-06-10T04:16:21.405Z,2
2023-06-10T04:16:53.279Z,2
2023-06-10T04:17:25.349Z,2
2023-06-10T04:17:57.502Z,2
2023-06-10T04:18:29.115Z,1
2023-06-10T04:19:01.217Z,356
2023-06-10T04:19:33.280Z,356
2023-06-10T04:20:05.907Z,356
2023-06-10T04:20:37.228Z,356
2023-06-10T04:21:09.216Z,356
2023-06-10T04:21:41.178Z,336
2023-06-10T04:22:13.080Z,333
2023-06-10T04:22:45.032Z,324
2023-06-10T04:23:17.231Z,324
2023-06-10T04:23:49.044Z,339
2023-06-10T04:24:21.220Z,339
2023-06-10T04:24:52.917Z,339
2023-06-10T04:25:09.627Z,339
2023-06-10T04:25:52.812Z,352
2023-06-10T04:26:09.024Z,353
2023-06-10T04:26:52.914Z,353
2023-06-10T04:27:24.810Z,356
2023-06-10T04:27:57.194Z,355
2023-06-10T04:28:28.838Z,356
2023-06-10T04:29:00.782Z,356
2023-06-10T04:29:32.956Z,356
2023-06-10T04:30:08.465Z,356
2023-06-10T04:30:36.885Z,356
2023-06-10T04:31:08.877Z,356
2023-06-10T04:31:40.801Z,356
2023-06-10T04:32:12.624Z,356
2023-06-10T04:32:44.769Z,356
2023-06-10T04:33:17.013Z,356
2023-06-10T04:33:48.816Z,356
2023-06-10T04:34:20.467Z,356
2023-06-10T04:34:52.487Z,356
2023-06-10T04:35:24.772Z,356
2023-06-10T04:35:56.804Z,356
2023-06-10T04:36:28.393Z,356
2023-06-10T04:37:00.449Z,356
2023-06-10T04:37:32.467Z,356
2023-06-10T04:38:04.673Z,356
2023-06-10T04:38:36.383Z,356
2023-06-10T04:39:08.437Z,356
2023-06-10T04:39:24.463Z,356
2023-06-10T04:39:56.412Z,356
2023-06-10T04:40:40.580Z,356
2023-06-10T04:41:12.182Z,356
2023-06-10T04:41:44.122Z,356
2023-06-10T04:42:16.409Z,356
2023-06-10T04:42:48.372Z,356
2023-06-10T04:43:20.105Z,356
2023-06-10T04:43:52.119Z,356
2023-06-10T04:44:24.124Z,355
2023-06-10T04:44:56.449Z,353
2023-06-10T04:45:28.460Z,353
2023-06-10T04:46:00.001Z,17
2023-06-10T04:46:32.220Z,17
2023-06-10T04:47:04.368Z,6
2023-06-10T04:47:36.238Z,6
2023-06-10T04:48:08.356Z,290
2023-06-10T04:48:39.989Z,300
2023-06-10T04:49:12.113Z,12
2023-06-10T04:49:43.989Z,19
2023-06-10T04:50:16.204Z,13
2023-06-10T04:50:48.239Z,15
2023-06-10T04:51:20.014Z,9
2023-06-10T04:51:51.829Z,10
2023-06-10T04:52:08.145Z,6
2023-06-10T04:52:39.970Z,9
2023-06-10T04:53:23.698Z,17
2023-06-10T04:53:56.478Z,17
2023-06-10T04:54:27.834Z,16
2023-06-10T04:54:59.780Z,17
2023-06-10T04:55:32.015Z,14
2023-06-10T04:56:04.295Z,14
2023-06-10T04:56:35.583Z,15
2023-06-10T04:57:07.716Z,14
2023-06-10T04:57:23.708Z,14
2023-06-10T04:57:55.543Z,355
2023-06-10T04:58:39.761Z,355
2023-06-10T04:59:11.598Z,355
2023-06-10T04:59:43.473Z,355
2023-06-10T05:00:19.061Z,354
2023-06-10T05:00:47.971Z,333
2023-06-10T05:01:19.363Z,14
2023-06-10T05:01:51.622Z,17
2023-06-10T05:02:07.832Z,17
2023-06-10T05:02:51.630Z,17
2023-06-10T05:03:23.482Z,17
2023-06-10T05:03:55.176Z,17
2023-06-10T05:04:27.504Z,17
2023-06-10T05:04:59.360Z,17
2023-06-10T05:05:31.722Z,17
2023-06-10T05:06:03.925Z,17
2023-06-10T05:06:35.243Z,17
2023-06-10T05:07:07.258Z,17
2023-06-10T05:07:39.130Z,17
2023-06-10T05:07:55.016Z,17
2023-06-10T05:08:27.439Z,17
2023-06-10T05:09:11.429Z,17
2023-06-10T05:09:43.031Z,17
2023-06-10T05:10:15.227Z,17
2023-06-10T05:10:47.374Z,17
2023-06-10T05:11:19.159Z,17
2023-06-10T05:11:51.032Z,17
2023-06-10T05:12:23.093Z,17
2023-06-10T05:12:55.037Z,17
2023-06-10T05:13:27.376Z,17
2023-06-10T05:13:58.966Z,17
2023-06-10T05:14:30.996Z,17
2023-06-10T05:15:11.677Z,17
2023-06-10T05:15:34.902Z,17
2023-06-10T05:16:07.211Z,17
2023-06-10T05:16:22.892Z,17
2023-06-10T05:16:54.770Z,17
2023-06-10T05:17:38.847Z,17
2023-06-10T05:18:10.762Z,17
2023-06-10T05:18:42.766Z,17
2023-06-10T05:19:14.615Z,17
2023-06-10T05:19:46.980Z,17
2023-06-10T05:20:19.160Z,17
2023-06-10T05:20:50.819Z,17
2023-06-10T05:21:22.536Z,17
2023-06-10T05:21:54.552Z,17
2023-06-10T05:22:26.792Z,17
2023-06-10T05:22:58.841Z,17
2023-06-10T05:23:30.692Z,17
2023-06-10T05:24:03.320Z,17
2023-06-10T05:24:34.337Z,17
2023-06-10T05:25:07.488Z,33
2023-06-10T05:25:38.510Z,37
2023-06-10T05:25:54.748Z,37
2023-06-10T05:26:26.525Z,37
2023-06-10T05:27:10.436Z,38
2023-06-10T05:27:42.386Z,38
2023-06-10T05:28:15.838Z,37
2023-06-10T05:28:46.417Z,37
2023-06-10T05:29:18.542Z,37
2023-06-10T05:29:50.326Z,37
2023-06-10T05:30:09.373Z,37
2023-06-10T05:30:38.277Z,37
2023-06-10T05:30:54.653Z,37
2023-06-10T05:31:26.509Z,37
2023-06-10T05:31:58.450Z,37
2023-06-10T05:32:14.390Z,37
2023-06-10T05:32:46.263Z,37
2023-06-10T05:33:30.239Z,37
2023-06-10T05:34:02.657Z,37
2023-06-10T05:34:34.245Z,37
2023-06-10T05:35:06.545Z,37
2023-06-10T05:35:38.203Z,37
2023-06-10T05:36:09.991Z,37
2023-06-10T05:36:42.065Z,37
2023-06-10T05:37:15.284Z,38
2023-06-10T05:37:45.904Z,38
2023-06-10T05:38:18.130Z,38
2023-06-10T05:38:49.936Z,38
2023-06-10T05:39:22.130Z,38
2023-06-10T05:39:53.878Z,38
2023-06-10T05:40:26.163Z,38
2023-06-10T05:40:58.154Z,37
2023-06-10T05:41:29.821Z,37
2023-06-10T05:42:02.476Z,38
2023-06-10T05:42:34.011Z,38
2023-06-10T05:43:06.051Z,38
2023-06-10T05:43:38.191Z,38
2023-06-10T05:44:12.601Z,38
2023-06-10T05:44:41.911Z,38
2023-06-10T05:45:21.700Z,39
2023-06-10T05:45:46.065Z,38
2023-06-10T05:46:17.983Z,38
2023-06-10T05:46:49.753Z,38
2023-06-10T05:47:21.934Z,39
2023-06-10T05:47:53.911Z,39
2023-06-10T05:48:25.508Z,39
2023-06-10T05:48:58.090Z,111
2023-06-10T05:49:29.677Z,105
2023-06-10T05:50:04.742Z,100
2023-06-10T05:50:33.686Z,80
2023-06-10T05:51:05.710Z,123
2023-06-10T05:51:38.699Z,102
2023-06-10T05:52:09.769Z,108
2023-06-10T05:52:41.590Z,99
2023-06-10T05:53:13.522Z,102
2023-06-10T05:53:45.608Z,91
2023-06-10T05:54:17.974Z,112
2023-06-10T05:54:49.731Z,103
2023-06-10T05:55:06.032Z,110
2023-06-10T05:55:49.648Z,99
2023-06-10T05:56:21.540Z,113
2023-06-10T05:56:53.412Z,95
2023-06-10T05:57:25.314Z,124
2023-06-10T05:57:57.722Z,120
2023-06-10T05:58:29.331Z,111
2023-06-10T05:59:01.501Z,135
2023-06-10T05:59:33.253Z,108
2023-06-10T06:00:14.911Z,134
2023-06-10T06:00:38.530Z,115
2023-06-10T06:01:09.265Z,116
2023-06-10T06:01:41.155Z,112
2023-06-10T06:02:13.187Z,116
2023-06-10T06:02:45.234Z,118
2023-06-10T06:03:17.542Z,106
2023-06-10T06:03:49.369Z,131
2023-06-10T06:04:05.294Z,130
2023-06-10T06:04:37.370Z,129
2023-06-10T06:04:53.161Z,122
2023-06-10T06:05:25.363Z,119
2023-06-10T06:05:57.189Z,117
2023-06-10T06:06:28.905Z,113
2023-06-10T06:07:01.142Z,104
2023-06-10T06:07:33.052Z,116
2023-06-10T06:08:05.049Z,116
2023-06-10T06:08:21.063Z,116
2023-06-10T06:08:52.983Z,154
2023-06-10T06:09:37.275Z,108
2023-06-10T06:10:09.370Z,103
2023-06-10T06:10:40.649Z,102
2023-06-10T06:11:12.844Z,102
2023-06-10T06:11:44.882Z,103
2023-06-10T06:12:16.817Z,109
2023-06-10T06:12:49.158Z,113
2023-06-10T06:13:05.508Z,131
2023-06-10T06:13:50.941Z,111
2023-06-10T06:14:20.773Z,108
2023-06-10T06:14:52.518Z,123
2023-06-10T06:15:24.912Z,125
2023-06-10T06:15:56.633Z,104
2023-06-10T06:16:28.970Z,106
2023-06-10T06:17:00.759Z,110
2023-06-10T06:17:32.503Z,112
2023-06-10T06:18:04.965Z,113
2023-06-10T06:18:36.814Z,116
2023-06-10T06:19:08.721Z,103
2023-06-10T06:19:40.350Z,117
2023-06-10T06:20:12.752Z,105
2023-06-10T06:20:44.525Z,106
2023-06-10T06:21:16.471Z,120
2023-06-10T06:21:48.695Z,96
2023-06-10T06:22:05.050Z,135
2023-06-10T06:22:36.363Z,136
2023-06-10T06:22:52.370Z,136
2023-06-10T06:23:24.432Z,138
2023-06-10T06:23:56.114Z,130
2023-06-10T06:24:28.800Z,158
2023-06-10T06:25:00.868Z,132
2023-06-10T06:25:32.301Z,130
2023-06-10T06:26:05.562Z,118
2023-06-10T06:26:20.206Z,117
2023-06-10T06:26:52.096Z,117
2023-06-10T06:27:36.242Z,23
2023-06-10T06:28:08.462Z,34
2023-06-10T06:28:40.101Z,340
2023-06-10T06:29:12.036Z,132
2023-06-10T06:29:44.104Z,106
2023-06-10T06:30:19.828Z,122
2023-06-10T06:30:48.381Z,106
2023-06-10T06:31:05.212Z,110
2023-06-10T06:31:48.297Z,110
2023-06-10T06:32:20.040Z,32
2023-06-10T06:32:52.101Z,52
2023-06-10T06:33:23.866Z,79
2023-06-10T06:33:59.371Z,132
2023-06-10T06:34:28.205Z,79
2023-06-10T06:34:59.756Z,59
2023-06-10T06:35:31.975Z,86
2023-06-10T06:36:04.420Z,97
2023-06-10T06:36:35.561Z,100
2023-06-10T06:36:51.812Z,99
2023-06-10T06:37:23.841Z,104
2023-06-10T06:38:07.932Z,105
2023-06-10T06:38:39.818Z,84
2023-06-10T06:39:11.667Z,95
2023-06-10T06:39:44.120Z,80
2023-06-10T06:40:15.911Z,110
2023-06-10T06:40:47.815Z,100
2023-06-10T06:41:19.793Z,87
2023-06-10T06:41:35.776Z,68
2023-06-10T06:42:19.466Z,84
2023-06-10T06:42:51.555Z,112
2023-06-10T06:43:23.280Z,106
2023-06-10T06:43:55.453Z,98
2023-06-10T06:44:27.672Z,118
2023-06-10T06:44:59.487Z,59
2023-06-10T06:45:33.876Z,113
2023-06-10T06:46:04.088Z,99
2023-06-10T06:46:19.790Z,81
2023-06-10T06:46:51.331Z,103
2023-06-10T06:47:35.520Z,86
2023-06-10T06:48:07.751Z,87
2023-06-10T06:48:39.620Z,49
2023-06-10T06:49:11.188Z,67
2023-06-10T06:49:43.314Z,94
2023-06-10T06:50:15.386Z,96
2023-06-10T06:50:47.180Z,93
2023-06-10T06:51:19.469Z,101
2023-06-10T06:51:51.276Z,97
2023-06-10T06:52:22.940Z,103
2023-06-10T06:52:55.023Z,89
2023-06-10T06:53:29.443Z,87
2023-06-10T06:53:59.470Z,98
2023-06-10T06:54:31.544Z,95
2023-06-10T06:55:12.005Z,356
2023-06-10T06:55:19.544Z,97
2023-06-10T06:56:04.325Z,118
2023-06-10T06:56:35.132Z,100
2023-06-10T06:57:07.011Z,82
2023-06-10T06:57:39.240Z,39
2023-06-10T06:58:10.845Z,85
2023-06-10T06:58:43.169Z,85
2023-06-10T06:59:14.597Z,87
2023-06-10T06:59:46.712Z,104
2023-06-10T07:00:23.213Z,102
2023-06-10T07:00:50.894Z,102
2023-06-10T07:01:22.678Z,126
2023-06-10T07:01:54.680Z,119
2023-06-10T07:02:27.067Z,96
2023-06-10T07:02:58.950Z,118
2023-06-10T07:03:30.720Z,119
2023-06-10T07:04:02.948Z,108
2023-06-10T07:04:18.688Z,152
2023-06-10T07:04:50.482Z,138
2023-06-10T07:05:35.099Z,118
2023-06-10T07:06:06.429Z,132
2023-06-10T07:06:38.763Z,110
2023-06-10T07:07:10.529Z,123
2023-06-10T07:07:42.551Z,108
2023-06-10T07:08:14.228Z,57
2023-06-10T07:08:46.358Z,80
2023-06-10T07:09:03.451Z,76
2023-06-10T07:09:48.679Z,105
2023-06-10T07:10:19.073Z,66
2023-06-10T07:10:50.310Z,112
2023-06-10T07:11:22.328Z,84
2023-06-10T07:11:54.266Z,109
2023-06-10T07:12:26.200Z,77
2023-06-10T07:12:58.529Z,75
2023-06-10T07:13:30.330Z,20
2023-06-10T07:14:02.345Z,81
2023-06-10T07:14:34.411Z,91
2023-06-10T07:15:07.218Z,103
2023-06-10T07:15:39.236Z,88
2023-06-10T07:16:10.130Z,77
2023-06-10T07:16:42.193Z,112
2023-06-10T07:17:14.110Z,97